MV CSAV Venezuela — A8TE8 — position and weather

sailwx.info

Track history (hours):
 
Tides and Currents Weather Stations Pressure Air Temp Water Temp Dewpoint Dewpoint Depression Visibility Wind Speed Wind Dir Waves Ship Positions

MV CSAV Venezuela

Last reported at 2017-Dec-04 10:22 UTC. Time now 2017-Dec-12 06:40 UTC.
Position S 01°32' W 048°45'.

Length 177 m; draft 8.9 m.

Type: Cargo ship. MMSI: 636091823.

Date/timePositionNaut miles runAvg speedWind from/ knotsBaromVisibWave heightAir tempDewpointWater temp
2017-Dec-04 10:22S 01°32' W 048°45'0 0.0
2017-Dec-04 09:58S 01°32' W 048°45'0 0.0
2017-Dec-04 09:30S 01°32' W 048°45'0 0.0
2017-Dec-04 09:00S 01°32' W 048°45'1 1.7
2017-Dec-04 08:30S 01°31' W 048°45'4 7.7
2017-Dec-04 08:01S 01°28' W 048°44'815.5
2017-Dec-04 07:31S 01°21' W 048°40'815.5
2017-Dec-04 07:00S 01°14' W 048°35'714.2
2017-Dec-04 06:30S 01°08' W 048°31'4 8.1
2017-Dec-04 06:00S 01°05' W 048°30'713.8
2017-Dec-04 05:30S 00°59' W 048°26'815.2
2017-Dec-04 05:00S 00°52' W 048°29'815.2
2017-Dec-04 04:30S 00°44' W 048°26'1214.7
2017-Dec-04 03:41S 00°34' W 048°20'314.3
2017-Dec-04 03:30S 00°32' W 048°18'914.1
2017-Dec-04 02:52S 00°25' W 048°12'514.1
2017-Dec-04 02:30S 00°23' W 048°08'714.4
2017-Dec-04 02:01S 00°19' W 048°02'714.6
2017-Dec-04 01:31S 00°16' W 047°56'714.8
2017-Dec-04 01:00S 00°09' W 047°52'814.9
2017-Dec-04 00:29S 00°02' W 047°48'814.6
2017-Dec-03 23:56N 00°05' W 047°45'  
2017-Nov-24 16:41N 49°44' W 003°37'315.8
2017-Nov-24 16:30N 49°45' W 003°33'816.0
2017-Nov-24 16:00N 49°49' W 003°22'816.2
2017-Nov-24 15:30N 49°53' W 003°11'916.2
2017-Nov-24 14:59N 49°58' W 002°60'3114.9
2017-Nov-24 12:53N 50°07' W 002°14'513.5
2017-Nov-24 12:30N 50°08' W 002°06'612.8
2017-Nov-24 12:00N 50°09' W 001°56'612.3
2017-Nov-24 11:30N 50°11' W 001°47'612.3
2017-Nov-24 11:00N 50°12' W 001°38'612.4
2017-Nov-24 10:30N 50°14' W 001°28'  
Track history (hours):
 
Tides and Currents Weather Stations Pressure Air Temp Water Temp Dewpoint Dewpoint Depression Visibility Wind Speed Wind Dir Waves Ship Positions

MV CSAV Venezuela

Last reported at 2017-Dec-04 10:22 UTC. Time now 2017-Dec-12 06:40 UTC.
Position S 01°32' W 048°45'.

Length 177 m; draft 8.9 m.

Type: Cargo ship. MMSI: 636091823.

Date/timePositionNaut miles runAvg speedWind from/ knotsBaromVisibWave heightAir tempDewpointWater temp
2017-Dec-04 10:22S 01°32' W 048°45'0 0.0
2017-Dec-04 09:58S 01°32' W 048°45'0 0.0
2017-Dec-04 09:30S 01°32' W 048°45'0 0.0
2017-Dec-04 09:00S 01°32' W 048°45'1 1.7
2017-Dec-04 08:30S 01°31' W 048°45'4 7.7
2017-Dec-04 08:01S 01°28' W 048°44'815.5
2017-Dec-04 07:31S 01°21' W 048°40'815.5
2017-Dec-04 07:00S 01°14' W 048°35'714.2
2017-Dec-04 06:30S 01°08' W 048°31'4 8.1
2017-Dec-04 06:00S 01°05' W 048°30'713.8
2017-Dec-04 05:30S 00°59' W 048°26'815.2
2017-Dec-04 05:00S 00°52' W 048°29'815.2
2017-Dec-04 04:30S 00°44' W 048°26'1214.7
2017-Dec-04 03:41S 00°34' W 048°20'314.3
2017-Dec-04 03:30S 00°32' W 048°18'914.1
2017-Dec-04 02:52S 00°25' W 048°12'514.1
2017-Dec-04 02:30S 00°23' W 048°08'714.4
2017-Dec-04 02:01S 00°19' W 048°02'714.6
2017-Dec-04 01:31S 00°16' W 047°56'714.8
2017-Dec-04 01:00S 00°09' W 047°52'814.9
2017-Dec-04 00:29S 00°02' W 047°48'814.6
2017-Dec-03 23:56N 00°05' W 047°45'  
2017-Nov-24 16:41N 49°44' W 003°37'315.8
2017-Nov-24 16:30N 49°45' W 003°33'816.0
2017-Nov-24 16:00N 49°49' W 003°22'816.2
2017-Nov-24 15:30N 49°53' W 003°11'916.2
2017-Nov-24 14:59N 49°58' W 002°60'3114.9
2017-Nov-24 12:53N 50°07' W 002°14'513.5
2017-Nov-24 12:30N 50°08' W 002°06'612.8
2017-Nov-24 12:00N 50°09' W 001°56'612.3
2017-Nov-24 11:30N 50°11' W 001°47'612.3
2017-Nov-24 11:00N 50°12' W 001°38'612.4
2017-Nov-24 10:30N 50°14' W 001°28'  

Dump ship's entire track history